createdAt,value
2022-11-17T00:01:32.457Z,27.8
2022-11-17T00:07:11.514Z,27.1
2022-11-17T00:12:55.323Z,26.3
2022-11-17T00:18:02.979Z,29.8
2022-11-17T00:23:40.148Z,33.4
2022-11-17T00:29:01.747Z,31.1
2022-11-17T00:34:25.289Z,28.9
2022-11-17T00:39:32.369Z,28
2022-11-17T00:45:09.626Z,27.3
2022-11-17T00:50:01.649Z,26.6
2022-11-17T00:55:09.269Z,25.7
2022-11-17T01:00:31.507Z,32
2022-11-17T01:05:39.149Z,33.2
2022-11-17T01:11:02.149Z,29.7
2022-11-17T01:16:24.211Z,28.4
2022-11-17T01:22:02.258Z,27.7
2022-11-17T01:26:54.004Z,26.9
2022-11-17T01:32:01.003Z,26.3
2022-11-17T01:36:52.356Z,28.1
2022-11-17T01:42:14.506Z,32.7
2022-11-17T01:47:21.943Z,32.6
2022-11-17T01:52:43.880Z,29.4
2022-11-17T01:58:05.795Z,28.3
2022-11-17T02:03:29.505Z,27.6
2022-11-17T02:09:06.972Z,26.9
2022-11-17T02:14:44.839Z,26.1
2022-11-17T02:20:17.402Z,31.3
2022-11-17T02:25:08.778Z,33.4
2022-11-17T02:30:33.684Z,30.1
2022-11-17T02:35:56.771Z,28.6
2022-11-17T02:46:25.953Z,27.1
2022-11-17T02:51:52.176Z,26.4
2022-11-17T03:02:21.909Z,32.8
2022-11-17T03:07:45.292Z,32.4
2022-11-17T03:13:24.225Z,29.2
2022-11-17T03:19:01.744Z,28.2
2022-11-17T03:24:39.944Z,27.4
2022-11-17T03:30:17.843Z,26.6
2022-11-17T03:36:04.358Z,26.3
2022-11-17T03:41:42.702Z,32.7
2022-11-17T03:46:49.772Z,32.4
2022-11-17T03:51:56.490Z,29.3
2022-11-17T03:57:35.477Z,28.3
2022-11-17T04:02:56.354Z,27.5
2022-11-17T04:08:19.654Z,26.8
2022-11-17T04:14:00.150Z,26.1
2022-11-17T04:19:40.631Z,31.7
2022-11-17T04:25:19.068Z,33.3
2022-11-17T04:30:41.376Z,29.6
2022-11-17T04:36:19.007Z,28.4
2022-11-17T04:41:41.271Z,27.7
2022-11-17T04:47:19.963Z,26.9
2022-11-17T04:53:02.484Z,26.2
2022-11-17T04:58:27.616Z,31.5
2022-11-17T05:03:51.194Z,33.6
2022-11-17T05:09:28.963Z,30.1
2022-11-17T05:15:06.254Z,28.6
2022-11-17T05:25:54.121Z,27.1
2022-11-17T05:31:31.630Z,26.4
2022-11-17T05:37:14.689Z,30.7
2022-11-17T05:42:57.046Z,34.1
2022-11-17T05:48:20.320Z,33.9
2022-11-17T05:53:47.230Z,30.1
2022-11-17T05:59:09.017Z,28.8
2022-11-17T06:04:18.941Z,30.1
2022-11-17T06:09:48.459Z,33.8
2022-11-17T06:15:27.192Z,33.7
2022-11-17T06:20:47.783Z,30.1
2022-11-17T06:26:42.846Z,29.1
2022-11-17T06:32:22.162Z,28.5
2022-11-17T06:37:44.371Z,33.6
2022-11-17T06:43:26.147Z,34
2022-11-17T06:49:04.730Z,29.9
2022-11-17T06:54:48.881Z,28.6
2022-11-17T07:00:12.354Z,27.7
2022-11-17T07:05:36.119Z,32.6
2022-11-17T07:11:19.578Z,35.1
2022-11-17T07:16:42.762Z,30.7
2022-11-17T07:22:21.719Z,28.9
2022-11-17T07:27:50.137Z,28
2022-11-17T07:33:28.875Z,30.1
2022-11-17T07:39:07.642Z,33.3
2022-11-17T07:44:45.684Z,29.6
2022-11-17T07:50:27.682Z,28.4
2022-11-17T07:55:50.945Z,27.6
2022-11-17T08:01:35.821Z,26.9
2022-11-17T08:07:05.190Z,26.1
2022-11-17T08:12:14.005Z,25.6
2022-11-17T08:17:38.162Z,31.6
2022-11-17T08:23:03.804Z,33.2
2022-11-17T08:28:27.033Z,29.5
2022-11-17T08:33:49.714Z,28.3
2022-11-17T08:39:15.641Z,27.6
2022-11-17T08:44:58.378Z,26.9
2022-11-17T08:50:37.934Z,26.1
2022-11-17T08:56:01.794Z,26.1
2022-11-17T09:01:41.053Z,32.9
2022-11-17T09:07:19.677Z,31.9
2022-11-17T09:13:18.561Z,29
2022-11-17T09:18:57.607Z,28.1
2022-11-17T09:24:24.063Z,27.4
2022-11-17T09:29:47.620Z,26.8
2022-11-17T09:35:13.448Z,26.1
2022-11-17T09:40:38.265Z,31.7
2022-11-17T09:46:22.622Z,33.2
2022-11-17T09:52:17.419Z,29.3
2022-11-17T09:58:01.421Z,28.1
2022-11-17T10:03:45.334Z,27.4
2022-11-17T10:09:25.826Z,26.7
2022-11-17T10:15:04.249Z,26.1
2022-11-17T10:20:42.082Z,31.5
2022-11-17T10:26:21.307Z,33.2
2022-11-17T10:31:58.918Z,29.6
2022-11-17T10:37:43.460Z,28.4
2022-11-17T10:43:29.796Z,27.6
2022-11-17T10:49:17.167Z,26.9
2022-11-17T10:54:56.345Z,25.9
2022-11-17T11:00:34.496Z,31.6
2022-11-17T11:06:16.216Z,33.2
2022-11-17T11:11:55.928Z,29.6
2022-11-17T11:17:37.368Z,28.6
2022-11-17T11:28:41.244Z,27.1
2022-11-17T11:34:20.683Z,26.4
2022-11-17T11:40:01.294Z,32.1
2022-11-17T11:45:44.699Z,32.8
2022-11-17T11:51:28.467Z,29.7
2022-11-17T11:56:54.192Z,28.7
2022-11-17T12:02:35.490Z,28
2022-11-17T12:08:14.434Z,27.2
2022-11-17T12:13:58.220Z,26.4
2022-11-17T12:19:36.574Z,31.9
2022-11-17T12:25:14.314Z,33.1
2022-11-17T12:30:54.633Z,29.8
2022-11-17T12:36:32.678Z,28.7
2022-11-17T12:41:55.629Z,27.9
2022-11-17T12:47:39.552Z,27.2
2022-11-17T12:53:53.845Z,26.4
2022-11-17T12:59:34.081Z,31.4
2022-11-17T13:05:12.055Z,33.3
2022-11-17T13:11:22.458Z,29.8
2022-11-17T13:17:05.743Z,28.6
2022-11-17T13:27:56.196Z,27.1
2022-11-17T13:33:40.134Z,26.4
2022-11-17T13:39:21.697Z,25.7
2022-11-17T13:45:02.845Z,25.1
2022-11-17T13:50:41.028Z,24.6
2022-11-17T13:56:23.013Z,24.1
2022-11-17T14:02:03.220Z,23.7
2022-11-17T14:07:42.463Z,23.3
2022-11-17T14:13:20.429Z,23.1
2022-11-17T14:18:59.045Z,22.8
2022-11-17T14:24:45.623Z,22.6
2022-11-17T14:30:23.552Z,22.4
2022-11-17T14:36:11.681Z,22.2
2022-11-17T14:41:38.431Z,22.1
2022-11-17T14:47:20.130Z,21.9
2022-11-17T14:52:47.417Z,21.8
2022-11-17T14:57:55.037Z,21.7
2022-11-17T15:03:39.403Z,21.6
2022-11-17T15:09:53.037Z,21.5
2022-11-17T15:15:32.740Z,21.4
2022-11-17T15:20:54.927Z,21.3
2022-11-17T15:26:38.507Z,21.3
2022-11-17T15:32:02.123Z,21.3
2022-11-17T15:37:40.234Z,21.2
2022-11-17T15:48:51.711Z,30.5
2022-11-17T15:55:02.211Z,34
2022-11-17T16:00:40.421Z,35.5
2022-11-17T16:06:18.643Z,36.4
2022-11-17T16:11:30.502Z,37.1
2022-11-17T16:17:07.989Z,36.9
2022-11-17T16:22:46.642Z,36.6
2022-11-17T16:33:36.077Z,36.2
2022-11-17T16:39:46.396Z,36.3
2022-11-17T16:45:09.230Z,37.1
2022-11-17T16:50:46.850Z,35.4
2022-11-17T16:56:28.686Z,36.9
2022-11-17T17:01:51.014Z,37.9
2022-11-17T17:07:30.288Z,38.8
2022-11-17T17:12:53.111Z,39.6
2022-11-17T17:18:15.072Z,39.9
2022-11-17T17:23:38.228Z,40.1
2022-11-17T17:28:44.838Z,40
2022-11-17T17:34:24.924Z,39.4
2022-11-17T17:39:47.341Z,38.9
2022-11-17T17:45:25.475Z,39.6
2022-11-17T17:51:03.551Z,40.3
2022-11-17T17:56:10.122Z,40.5
2022-11-17T18:01:47.454Z,40.3
2022-11-17T18:07:12.504Z,40.5
2022-11-17T18:12:50.720Z,40.3
2022-11-17T18:18:32.059Z,39.9
2022-11-17T18:24:16.171Z,40.1
2022-11-17T18:30:01.437Z,40.1
2022-11-17T18:35:39.526Z,40
2022-11-17T18:41:17.271Z,39.9
2022-11-17T18:46:59.718Z,40
2022-11-17T18:53:04.192Z,40.4
2022-11-17T18:58:41.737Z,40.4
2022-11-17T19:04:04.533Z,40.4
2022-11-17T19:09:42.933Z,40.7
2022-11-17T19:15:20.957Z,40.9
2022-11-17T19:20:59.647Z,40.8
2022-11-17T19:26:23.619Z,40.4
2022-11-17T19:32:04.675Z,40.6
2022-11-17T19:37:22.984Z,40.8
2022-11-17T19:43:01.646Z,40.8
2022-11-17T19:48:44.987Z,40.4
2022-11-17T19:54:21.872Z,40.2
2022-11-17T19:59:49.147Z,40.5
2022-11-17T20:05:11.618Z,40.4
2022-11-17T20:10:18.888Z,40.4
2022-11-17T20:15:49.522Z,40.2
2022-11-17T20:21:33.821Z,39.9
2022-11-17T20:27:01.829Z,39.6
2022-11-17T20:32:45.549Z,39.4
2022-11-17T20:38:25.161Z,39.1
2022-11-17T20:44:03.048Z,37.8
2022-11-17T20:49:25.316Z,37.9
2022-11-17T20:54:48.287Z,36.8
2022-11-17T21:00:27.608Z,36.2
2022-11-17T21:05:53.147Z,35.7
2022-11-17T21:11:35.758Z,35.1
2022-11-17T21:16:58.064Z,34.3
2022-11-17T21:22:41.973Z,33.6
2022-11-17T21:28:19.798Z,32.8
2022-11-17T21:33:49.595Z,32.1
2022-11-17T21:39:17.572Z,31.4
2022-11-17T21:44:40.540Z,29
2022-11-17T21:50:17.927Z,28.4
2022-11-17T21:55:55.617Z,28.1
2022-11-17T22:06:41.815Z,27.6
2022-11-17T22:12:05.031Z,27.4
2022-11-17T22:17:42.118Z,27.3
2022-11-17T22:23:20.130Z,27.1
2022-11-17T22:29:12.868Z,30.6
2022-11-17T22:34:53.902Z,32.7
2022-11-17T22:40:16.413Z,29.8
2022-11-17T22:46:01.029Z,28.9
2022-11-17T22:51:38.906Z,28.4
2022-11-17T22:57:15.907Z,28.1
2022-11-17T23:02:43.702Z,27.7
2022-11-17T23:08:09.650Z,27.3
2022-11-17T23:14:21.682Z,26.9
2022-11-17T23:19:44.460Z,26.6
2022-11-17T23:25:07.017Z,26.4
2022-11-17T23:30:44.849Z,27.6
2022-11-17T23:36:22.468Z,33.6
2022-11-17T23:42:03.539Z,30.9
2022-11-17T23:47:43.123Z,28.7
2022-11-17T23:53:20.711Z,28.1
2022-11-17T23:58:58.237Z,27.6
